Time;durP1;ratioP1;P1;durP2;ratioP2;P2;SDS_P1;SDS_P2;PMS_P1;PMS_P2;Temp;Humidity;BMP_temperature;BMP_pressure;BME280_temperature;BME280_humidity;BME280_pressure;Samples;Min_cycle;Max_cycle;Signal;HPM_P1;HPM_P2
2022/10/06 00:00:48;;;;;;;17.88;11.02;;;;;;;13.23;100.00;99822.69;5034050;28;20056;-94
2022/10/06 00:03:16;;;;;;;24.45;10.50;;;;;;;13.36;100.00;99844.72;5033978;28;20437;-94
2022/10/06 00:05:42;;;;;;;19.10;10.73;;;;;;;13.26;100.00;99837.75;5033998;28;20064;-94
2022/10/06 00:08:08;;;;;;;19.52;10.93;;;;;;;13.17;100.00;99821.94;5032524;28;20048;-93
2022/10/06 00:10:34;;;;;;;19.27;11.10;;;;;;;13.18;100.00;99840.56;5033368;28;20049;-93
2022/10/06 00:13:01;;;;;;;21.73;10.77;;;;;;;13.11;100.00;99828.28;5028613;28;20048;-94
2022/10/06 00:15:28;;;;;;;18.38;10.57;;;;;;;13.22;100.00;99847.63;5033496;28;20487;-94
2022/10/06 00:17:54;;;;;;;22.58;11.85;;;;;;;13.21;100.00;99837.00;5033510;28;20037;-96
2022/10/06 00:20:22;;;;;;;23.95;11.77;;;;;;;13.11;100.00;99821.13;5033110;28;20063;-95
2022/10/06 00:22:49;;;;;;;25.80;12.10;;;;;;;13.16;100.00;99834.38;5033811;28;20045;-93
2022/10/06 00:25:19;;;;;;;20.65;11.90;;;;;;;13.14;100.00;99837.13;5033217;28;20049;-95
2022/10/06 00:27:47;;;;;;;24.55;12.68;;;;;;;13.18;100.00;99840.56;5030251;28;20044;-95
2022/10/06 00:30:16;;;;;;;26.60;12.90;;;;;;;13.05;100.00;99818.59;5030613;28;20041;-95
2022/10/06 00:32:50;;;;;;;23.80;12.82;;;;;;;13.04;100.00;99823.97;5032976;28;20537;-94
2022/10/06 00:35:16;;;;;;;31.00;13.63;;;;;;;13.04;100.00;99815.97;5030469;28;20076;-95
2022/10/06 00:37:43;;;;;;;28.42;13.15;;;;;;;13.03;100.00;99819.53;5033855;28;20487;-94
2022/10/06 00:40:09;;;;;;;27.05;13.55;;;;;;;12.99;100.00;99824.06;5033591;28;20383;-94
2022/10/06 00:42:49;;;;;;;24.02;13.35;;;;;;;13.05;100.00;99833.72;5033469;28;20037;-95
2022/10/06 00:45:16;;;;;;;32.10;13.43;;;;;;;13.05;100.00;99831.06;5032202;28;20041;-94
2022/10/06 00:47:43;;;;;;;24.98;13.48;;;;;;;13.11;100.00;99830.94;5032859;28;20064;-96
2022/10/06 00:50:11;;;;;;;38.72;13.35;;;;;;;13.09;100.00;99830.09;5034070;28;20045;-95
2022/10/06 00:52:38;;;;;;;27.90;13.50;;;;;;;13.03;100.00;99827.53;5031942;28;20061;-95
2022/10/06 00:55:09;;;;;;;24.13;12.38;;;;;;;13.04;100.00;99840.00;5033638;28;20064;-94
2022/10/06 00:57:37;;;;;;;28.27;13.07;;;;;;;12.94;100.00;99823.25;5033257;28;20529;-93
2022/10/06 01:00:05;;;;;;;21.13;12.18;;;;;;;12.98;100.00;99826.75;5033269;28;20120;-93
2022/10/06 01:02:36;;;;;;;19.42;11.23;;;;;;;12.95;100.00;99817.91;5033300;28;20033;-94
2022/10/06 01:05:06;;;;;;;23.77;11.88;;;;;;;12.90;100.00;99808.22;5033488;28;20091;-93
2022/10/06 01:07:32;;;;;;;22.65;10.57;;;;;;;12.87;100.00;99817.16;5033927;28;20041;-92
2022/10/06 01:09:58;;;;;;;18.92;10.60;;;;;;;12.89;100.00;99826.03;5037052;28;20379;-95
2022/10/06 01:12:28;;;;;;;21.35;11.85;;;;;;;12.88;100.00;99828.72;5036716;28;20050;-95
2022/10/06 01:14:56;;;;;;;21.92;11.95;;;;;;;12.70;100.00;99801.47;5036956;28;20541;-93
2022/10/06 01:17:28;;;;;;;25.45;11.50;;;;;;;12.65;100.00;99803.38;5036619;28;20054;-94
2022/10/06 01:19:59;;;;;;;19.85;11.00;;;;;;;12.71;100.00;99813.06;5037245;28;20522;-94
2022/10/06 01:22:28;;;;;;;22.15;10.60;;;;;;;12.68;100.00;99807.75;5036809;28;20045;-94
2022/10/06 01:24:55;;;;;;;21.52;11.02;;;;;;;12.72;100.00;99814.78;5035790;28;20065;-94
2022/10/06 01:27:23;;;;;;;21.02;11.18;;;;;;;12.64;100.00;99806.06;5036462;28;20100;-93
2022/10/06 01:29:52;;;;;;;23.30;11.90;;;;;;;12.59;100.00;99794.59;5036880;28;20052;-94
2022/10/06 01:32:18;;;;;;;22.67;12.35;;;;;;;12.61;100.00;99798.13;5036819;28;20263;-94
2022/10/06 01:34:44;;;;;;;23.40;12.27;;;;;;;12.56;100.00;99792.88;5036702;28;20049;-93
2022/10/06 01:37:10;;;;;;;20.67;11.82;;;;;;;12.66;100.00;99812.25;5034993;28;20435;-94
2022/10/06 01:39:37;;;;;;;21.25;11.70;;;;;;;12.62;100.00;99805.19;5036558;28;20136;-93
2022/10/06 01:42:04;;;;;;;21.45;11.27;;;;;;;12.54;100.00;99794.69;5031733;28;20083;-94
2022/10/06 01:44:30;;;;;;;21.75;10.82;;;;;;;12.55;100.00;99793.75;5036120;28;20041;-95
2022/10/06 01:46:55;;;;;;;17.95;10.07;;;;;;;12.54;100.00;99794.69;5036727;28;20045;-94
2022/10/06 01:49:21;;;;;;;22.02;11.40;;;;;;;12.49;100.00;99797.44;5036667;28;20136;-94
2022/10/06 01:51:47;;;;;;;23.35;11.32;;;;;;;12.60;100.00;99812.34;5036710;28;20525;-94
2022/10/06 01:54:13;;;;;;;30.20;10.55;;;;;;;12.56;100.00;99805.34;5036132;28;20037;-93
2022/10/06 01:56:40;;;;;;;20.48;9.77;;;;;;;12.44;100.00;99793.97;5036069;28;20057;-93
2022/10/06 01:59:50;;;;;;;16.52;9.88;;;;;;;12.39;100.00;99801.19;5036526;28;20502;-94
2022/10/06 02:03:19;;;;;;;;;;;;;;;;;;;;;
2022/10/06 02:06:54;;;;;;;22.80;11.38;;;;;;;12.67;100.00;99817.56;5009953;28;20452;-92
2022/10/06 02:09:20;;;;;;;25.60;11.30;;;;;;;12.54;100.00;99802.69;5012042;28;20037;-94
2022/10/06 02:11:47;;;;;;;22.25;11.40;;;;;;;12.56;100.00;99821.34;5014543;28;20038;-93
2022/10/06 02:14:13;;;;;;;20.25;11.43;;;;;;;12.41;100.00;99796.69;5014670;28;20041;-94
2022/10/06 02:16:39;;;;;;;21.80;10.77;;;;;;;12.38;100.00;99795.88;5014307;28;20092;-92
2022/10/06 02:19:05;;;;;;;24.80;10.80;;;;;;;12.35;100.00;99796.81;5014443;28;20053;-94
2022/10/06 02:21:31;;;;;;;25.63;11.45;;;;;;;12.42;100.00;99822.44;5013971;28;20527;-95
2022/10/06 02:23:57;;;;;;;19.25;11.07;;;;;;;12.37;100.00;99819.00;5014549;28;20495;-94
2022/10/06 02:26:23;;;;;;;26.48;11.35;;;;;;;12.29;100.00;99810.25;5014627;28;20046;-96
2022/10/06 02:28:51;;;;;;;20.80;10.73;;;;;;;12.16;100.00;99798.03;5014372;28;20049;-95
2022/10/06 02:31:16;;;;;;;24.50;10.82;;;;;;;12.21;100.00;99820.16;5014137;28;20038;-95
2022/10/06 02:33:43;;;;;;;21.30;11.05;;;;;;;12.15;100.00;99807.81;5014314;28;20533;-94
2022/10/06 02:36:11;;;;;;;18.10;10.32;;;;;;;12.16;100.00;99803.34;5012217;28;20084;-94
2022/10/06 02:38:37;;;;;;;28.02;11.38;;;;;;;12.12;100.00;99798.09;5035490;28;20061;-93
2022/10/06 02:41:03;;;;;;;18.77;10.57;;;;;;;12.09;100.00;99797.25;5040632;28;20490;-94
2022/10/06 02:43:30;;;;;;;20.35;10.57;;;;;;;12.19;100.00;99824.63;5035420;28;20055;-94
2022/10/06 02:46:00;;;;;;;23.15;11.02;;;;;;;12.06;100.00;99797.31;5035697;28;20733;-95
2022/10/06 02:48:27;;;;;;;22.02;10.95;;;;;;;12.05;100.00;99804.41;5035541;28;20049;-94
2022/10/06 02:50:56;;;;;;;31.48;10.68;;;;;;;12.00;100.00;99802.75;5035490;28;20040;-94
2022/10/06 02:53:24;;;;;;;25.98;12.32;;;;;;;11.93;100.00;99807.31;5035579;28;20155;-96
2022/10/06 02:55:50;;;;;;;27.45;11.00;;;;;;;11.91;100.00;99804.66;5035463;28;20120;-95
2022/10/06 02:58:16;;;;;;;20.10;11.07;;;;;;;11.97;100.00;99819.69;5035456;28;20132;-94
2022/10/06 03:00:42;;;;;;;23.20;11.00;;;;;;;12.05;100.00;99832.88;5035700;28;20088;-95
2022/10/06 03:03:09;;;;;;;19.17;10.05;;;;;;;11.91;100.00;99811.78;5035393;28;20103;-94
2022/10/06 03:05:35;;;;;;;21.92;11.32;;;;;;;11.98;100.00;99809.88;5020869;28;20586;-94
2022/10/06 03:08:01;;;;;;;18.65;10.43;;;;;;;12.02;100.00;99828.47;5035362;28;20069;-93
2022/10/06 03:10:26;;;;;;;25.52;12.07;;;;;;;12.09;100.00;99840.78;5035091;28;20049;-93
2022/10/06 03:12:52;;;;;;;25.83;13.35;;;;;;;11.97;100.00;99813.44;5036011;28;20046;-96
2022/10/06 03:15:19;;;;;;;24.95;13.55;;;;;;;12.05;100.00;99839.06;5035477;28;20498;-95
2022/10/06 03:17:47;;;;;;;25.77;13.07;;;;;;;12.06;100.00;99834.66;5035237;28;20063;-96
2022/10/06 03:20:15;;;;;;;28.33;14.10;;;;;;;11.92;100.00;99817.06;5035126;28;20103;-94
2022/10/06 03:22:41;;;;;;;29.75;13.60;;;;;;;11.96;100.00;99817.91;5035035;28;20041;-95
2022/10/06 03:25:08;;;;;;;29.95;13.13;;;;;;;11.89;100.00;99814.44;5035102;28;20072;-95
2022/10/06 03:27:34;;;;;;;32.63;13.13;;;;;;;11.89;100.00;99811.78;5035411;28;20053;-96
2022/10/06 03:30:00;;;;;;;22.80;12.18;;;;;;;11.97;100.00;99827.69;5035131;28;20164;-96
2022/10/06 03:32:26;;;;;;;26.15;12.60;;;;;;;11.99;100.00;99817.88;5034938;28;20128;-95
2022/10/06 03:34:52;;;;;;;23.90;12.55;;;;;;;11.94;100.00;99811.72;5035135;28;20049;-94
2022/10/06 03:37:19;;;;;;;24.55;12.13;;;;;;;12.00;100.00;99837.41;5035666;28;20075;-95
2022/10/06 03:39:45;;;;;;;25.23;12.93;;;;;;;11.85;100.00;99817.16;5035667;28;20037;-95
2022/10/06 03:42:11;;;;;;;23.52;12.18;;;;;;;11.94;100.00;99838.38;5035144;28;20565;-95
2022/10/06 03:44:37;;;;;;;28.67;12.93;;;;;;;11.85;100.00;99819.81;5036238;28;20045;-95
2022/10/06 03:47:02;;;;;;;23.02;11.73;;;;;;;12.01;100.00;99832.03;5029013;28;20038;-94
2022/10/06 03:49:28;;;;;;;30.67;12.95;;;;;;;12.06;100.00;99814.19;5037845;28;20076;-95
2022/10/06 03:51:54;;;;;;;21.83;12.55;;;;;;;12.12;100.00;99824.75;5037501;28;20037;-95
2022/10/06 03:54:21;;;;;;;26.17;12.60;;;;;;;12.14;100.00;99816.72;5036756;28;20446;-94
2022/10/06 03:56:47;;;;;;;25.00;11.55;;;;;;;12.15;100.00;99834.50;5037336;28;20049;-94
2022/10/06 03:59:18;;;;;;;31.48;14.63;;;;;;;12.00;100.00;99822.28;5037070;28;20433;-94
2022/10/06 04:01:45;;;;;;;23.65;12.75;;;;;;;12.05;100.00;99833.75;5036794;28;20084;-96
2022/10/06 04:04:12;;;;;;;21.55;11.95;;;;;;;12.04;100.00;99844.44;5036951;28;20394;-93
2022/10/06 04:06:40;;;;;;;25.50;12.18;;;;;;;11.94;100.00;99827.69;5036846;28;20103;-96
2022/10/06 04:09:08;;;;;;;23.92;12.88;;;;;;;11.90;100.00;99832.19;5036966;28;20045;-96
2022/10/06 04:11:38;;;;;;;23.40;11.75;;;;;;;11.90;100.00;99829.53;5037381;28;20056;-95
2022/10/06 04:14:06;;;;;;;26.77;12.13;;;;;;;11.99;100.00;99857.84;5037061;28;20044;-94
2022/10/06 04:16:34;;;;;;;23.08;12.38;;;;;;;11.86;100.00;99840.22;5037305;28;20498;-95
2022/10/06 04:19:02;;;;;;;20.05;11.23;;;;;;;11.85;100.00;99830.47;5037192;28;20037;-95
2022/10/06 04:21:30;;;;;;;21.03;12.50;;;;;;;11.84;100.00;99834.94;5036079;28;20050;-96
2022/10/06 04:23:58;;;;;;;24.92;12.10;;;;;;;11.90;100.00;99839.31;5036960;28;20037;-94
2022/10/06 04:26:27;;;;;;;22.33;11.73;;;;;;;11.88;100.00;99827.78;5031740;28;20037;-94
2022/10/06 04:28:54;;;;;;;26.98;11.75;;;;;;;11.90;100.00;99821.53;5035716;28;20049;-95
2022/10/06 04:31:21;;;;;;;22.27;11.45;;;;;;;11.89;100.00;99825.13;5038623;28;20048;-95
2022/10/06 04:33:50;;;;;;;23.33;12.00;;;;;;;11.88;100.00;99825.13;5038629;28;20056;-95
2022/10/06 04:36:22;;;;;;;21.42;11.32;;;;;;;11.84;100.00;99828.72;5038804;28;20128;-96
2022/10/06 04:38:48;;;;;;;21.40;11.18;;;;;;;11.78;100.00;99834.16;5038028;28;20048;-95
2022/10/06 04:41:16;;;;;;;20.15;10.85;;;;;;;11.66;100.00;99820.09;5039625;28;20529;-95
2022/10/06 04:43:46;;;;;;;19.75;11.48;;;;;;;11.63;100.00;99821.94;5041888;28;20049;-93
2022/10/06 04:46:14;;;;;;;21.73;11.32;;;;;;;11.59;100.00;99823.75;5042506;28;20117;-95
2022/10/06 04:48:40;;;;;;;19.17;10.73;;;;;;;11.62;100.00;99845.00;5047851;28;20094;-93
2022/10/06 04:51:10;;;;;;;22.83;10.55;;;;;;;11.44;100.00;99832.84;5043509;28;20105;-95
2022/10/06 04:53:36;;;;;;;20.08;11.27;;;;;;;11.39;100.00;99831.16;5044056;28;20041;-95
2022/10/06 04:56:05;;;;;;;20.33;10.30;;;;;;;11.40;100.00;99835.56;5043142;28;20042;-95
2022/10/06 04:58:32;;;;;;;17.92;11.23;;;;;;;11.49;100.00;99854.97;5043542;28;20155;-94
2022/10/06 05:00:58;;;;;;;26.70;12.23;;;;;;;11.52;100.00;99848.72;5043334;28;20134;-95
2022/10/06 05:03:27;;;;;;;20.95;11.52;;;;;;;11.49;100.00;99841.66;5043333;28;20077;-96
2022/10/06 05:06:01;;;;;;;25.63;12.85;;;;;;;11.57;100.00;99833.53;5042364;28;20042;-95
2022/10/06 05:08:27;;;;;;;24.30;12.80;;;;;;;11.55;100.00;99826.47;5044468;28;20097;-93
2022/10/06 05:10:58;;;;;;;24.45;12.85;;;;;;;11.56;100.00;99823.81;5043991;28;20076;-96
2022/10/06 05:13:25;;;;;;;25.73;12.20;;;;;;;11.76;100.00;99843.97;5023229;28;20136;-95
2022/10/06 05:15:55;;;;;;;27.83;12.57;;;;;;;11.82;100.00;99841.16;5023754;28;20046;-95
2022/10/06 05:18:21;;;;;;;22.58;10.93;;;;;;;11.69;100.00;99829.84;5024243;28;20069;-95
2022/10/06 05:20:56;;;;;;;20.77;10.85;;;;;;;11.64;100.00;99837.00;5024656;28;20080;-95
2022/10/06 05:23:23;;;;;;;24.65;10.95;;;;;;;11.67;100.00;99847.63;5023847;28;20045;-95
2022/10/06 05:25:52;;;;;;;20.48;11.77;;;;;;;11.46;100.00;99825.69;5023455;28;20487;-96
2022/10/06 05:28:18;;;;;;;36.75;11.57;;;;;;;11.41;100.00;99830.22;5021832;28;20041;-95
2022/10/06 05:30:54;;;;;;;22.85;10.82;;;;;;;11.39;100.00;99825.81;5020498;28;20049;-94
2022/10/06 05:33:20;;;;;;;19.67;11.20;;;;;;;11.31;100.00;99824.13;5021858;28;20054;-95
2022/10/06 05:35:50;;;;;;;20.33;10.57;;;;;;;11.30;100.00;99827.69;5020858;28;20086;-94
2022/10/06 05:38:22;;;;;;;23.90;11.35;;;;;;;11.35;100.00;99832.97;5021605;28;20076;-94
2022/10/06 05:40:48;;;;;;;21.58;11.18;;;;;;;11.40;100.00;99843.56;5019837;28;20042;-95
2022/10/06 05:43:15;;;;;;;19.65;11.43;;;;;;;11.38;100.00;99835.56;5019083;28;20050;-96
2022/10/06 05:45:52;;;;;;;22.02;11.55;;;;;;;11.38;100.00;99835.56;5021899;28;20045;-94
2022/10/06 05:48:17;;;;;;;24.42;11.23;;;;;;;11.44;100.00;99838.16;5020560;28;20046;-95
2022/10/06 05:50:43;;;;;;;22.83;11.98;;;;;;;11.45;100.00;99839.03;5020521;28;20527;-94
2022/10/06 05:53:09;;;;;;;19.83;11.85;;;;;;;11.49;100.00;99841.66;5019719;28;20053;-96
2022/10/06 05:55:37;;;;;;;25.42;12.55;;;;;;;11.53;100.00;99853.13;5019888;28;20130;-95
2022/10/06 05:58:03;;;;;;;31.27;12.80;;;;;;;11.45;100.00;99837.28;5017404;28;20104;-94
2022/10/06 06:00:29;;;;;;;27.52;12.63;;;;;;;11.48;100.00;99844.34;5017303;28;20058;-95
2022/10/06 06:02:55;;;;;;;29.10;12.90;;;;;;;11.63;100.00;99865.44;5017434;28;20069;-95
2022/10/06 06:05:21;;;;;;;26.85;12.48;;;;;;;11.57;100.00;99853.97;5017061;28;20049;-95
2022/10/06 06:07:46;;;;;;;22.02;12.75;;;;;;;11.46;100.00;99830.16;5018440;28;20061;-93
2022/10/06 06:10:12;;;;;;;20.58;12.05;;;;;;;11.53;100.00;99839.81;5017646;28;20045;-95
2022/10/06 06:12:40;;;;;;;20.90;12.80;;;;;;;11.62;100.00;99858.31;5019836;28;20053;-95
2022/10/06 06:18:11;;;;;;;27.80;14.45;;;;;;;11.72;100.00;99867.97;5101803;27;20382;-95
2022/10/06 06:20:37;;;;;;;28.83;12.63;;;;;;;11.63;100.00;99848.56;5105599;28;20048;-95
2022/10/06 06:23:04;;;;;;;20.73;11.45;;;;;;;11.61;100.00;99845.06;5105728;28;20045;-95
2022/10/06 06:25:30;;;;;;;19.35;10.35;;;;;;;11.66;100.00;99837.88;5102550;28;20040;-95
2022/10/06 06:27:56;;;;;;;21.92;11.55;;;;;;;11.70;100.00;99844.91;5101380;28;20044;-94
2022/10/06 06:30:23;;;;;;;26.10;12.48;;;;;;;11.71;100.00;99854.69;5101451;28;20041;-95
2022/10/06 06:32:49;;;;;;;24.08;12.80;;;;;;;11.74;100.00;99861.75;5101216;28;20044;-95
2022/10/06 06:35:17;;;;;;;26.10;12.48;;;;;;;11.78;100.00;99867.00;5100867;28;20059;-95
2022/10/06 06:37:44;;;;;;;23.23;12.77;;;;;;;11.87;100.00;99874.00;5101192;28;20041;-94
2022/10/06 06:40:10;;;;;;;23.67;13.18;;;;;;;11.87;100.00;99866.00;5104153;28;20078;-96
2022/10/06 06:42:37;;;;;;;25.02;12.82;;;;;;;12.00;100.00;99872.06;5101719;28;20047;-95
2022/10/06 06:45:03;;;;;;;26.13;13.98;;;;;;;12.02;100.00;99868.47;5101990;28;20044;-95
2022/10/06 06:47:30;;;;;;;21.83;12.60;;;;;;;12.13;100.00;99871.84;5101452;28;20052;-95
2022/10/06 06:49:58;;;;;;;24.08;12.50;;;;;;;12.32;100.00;99898.22;5102628;28;20040;-96
2022/10/06 06:52:30;;;;;;;25.63;12.55;;;;;;;12.42;100.00;99886.47;5094286;28;20044;-94
2022/10/06 06:54:56;;;;;;;23.55;13.05;;;;;;;12.52;100.00;99871.22;5075978;28;20033;-96
2022/10/06 06:57:21;;;;;;;42.83;13.20;;;;;;;12.76;100.00;99880.56;5075853;28;20051;-93
2022/10/06 06:59:47;;;;;;;25.13;12.07;;;;;;;12.85;100.00;99876.84;5077116;28;20040;-94
2022/10/06 07:02:18;;;;;;;23.02;12.52;;;;;;;13.18;100.00;99899.34;5098761;28;20089;-96
2022/10/06 07:04:44;;;;;;;23.40;13.23;;;;;;;13.35;100.00;99901.72;5101007;28;20048;-95
2022/10/06 07:07:11;;;;;;;22.25;13.50;;;;;;;13.48;100.00;99903.22;5092360;28;20124;-95
2022/10/06 07:09:38;;;;;;;25.48;14.48;;;;;;;13.54;100.00;99886.19;5092189;28;20131;-94
2022/10/06 07:12:04;;;;;;;26.05;12.85;;;;;;;13.72;100.00;99907.16;5093659;28;20052;-95
2022/10/06 07:14:30;;;;;;;18.33;11.20;;;;;;;13.72;100.00;99876.88;5093276;28;20493;-94
2022/10/06 07:25:39;;;;;;;21.38;11.65;;;;;;;14.28;100.00;99900.56;5137356;27;20379;-95
2022/10/06 07:28:06;;;;;;;19.00;10.13;;;;;;;14.22;99.05;99906.94;5137084;28;20040;-94
2022/10/06 07:30:32;;;;;;;18.23;10.10;;;;;;;14.25;100.00;99908.63;5136519;28;20069;-93
2022/10/06 07:32:58;;;;;;;20.30;11.27;;;;;;;14.16;100.00;99891.91;5136363;27;20044;-95
2022/10/06 07:35:24;;;;;;;21.60;11.95;;;;;;;14.41;100.00;99910.03;5136196;27;20051;-93
2022/10/06 07:37:53;;;;;;;18.10;10.60;;;;;;;14.56;99.07;99884.72;5137984;27;20078;-95
2022/10/06 07:40:19;;;;;;;19.52;10.82;;;;;;;14.65;96.73;99891.66;5138266;27;20069;-96
2022/10/06 07:42:47;;;;;;;18.80;10.65;;;;;;;14.75;97.93;99911.91;5137436;28;20438;-92
2022/10/06 07:48:18;;;;;;;20.67;11.00;;;;;;;14.85;97.18;99881.28;5075333;27;20399;-95
2022/10/06 07:50:47;;;;;;;21.45;11.50;;;;;;;15.10;95.18;99886.00;5074496;28;20067;-95
2022/10/06 07:53:15;;;;;;;20.65;11.57;;;;;;;15.36;95.55;99910.25;5076087;28;20045;-95
2022/10/06 07:55:43;;;;;;;21.25;11.25;;;;;;;15.40;92.55;99895.84;5074787;28;20045;-94
2022/10/06 07:58:10;;;;;;;21.80;11.43;;;;;;;15.49;93.26;99896.50;5073680;28;20041;-95
2022/10/06 08:00:36;;;;;;;21.50;11.25;;;;;;;15.40;92.71;99879.75;5072372;28;20459;-95
2022/10/06 08:03:02;;;;;;;24.63;12.02;;;;;;;15.54;92.52;99911.50;5073630;28;20044;-95
2022/10/06 08:05:29;;;;;;;22.27;12.18;;;;;;;15.33;93.87;99890.69;5072255;28;20098;-95
2022/10/06 08:07:55;;;;;;;21.15;11.55;;;;;;;15.35;93.84;99897.78;5072670;28;20043;-95
2022/10/06 08:10:21;;;;;;;21.30;11.85;;;;;;;15.36;93.23;99878.09;5071424;28;20044;-95
2022/10/06 08:12:47;;;;;;;21.73;11.63;;;;;;;15.41;93.44;99877.94;5071694;28;20098;-95
2022/10/06 08:15:13;;;;;;;24.77;13.73;;;;;;;15.58;92.88;99877.47;5073271;28;20402;-96
2022/10/06 08:17:39;;;;;;;27.25;14.40;;;;;;;15.79;92.37;99875.97;5071838;28;20037;-94
2022/10/06 08:20:07;;;;;;;29.35;14.82;;;;;;;15.95;91.21;99876.38;5072167;28;20091;-96
2022/10/06 08:22:37;;;;;;;32.15;14.68;;;;;;;16.04;90.12;99872.50;5076867;28;20067;-96
2022/10/06 08:25:04;;;;;;;30.40;14.30;;;;;;;16.35;89.55;99884.03;5078233;28;20587;-96
2022/10/06 08:27:30;;;;;;;19.73;11.70;;;;;;;16.30;89.27;99867.16;5077627;28;20110;-96
2022/10/06 08:29:57;;;;;;;21.27;12.35;;;;;;;16.08;90.49;99871.50;5074481;28;20425;-95
2022/10/06 08:32:23;;;;;;;26.23;12.90;;;;;;;16.13;90.93;99881.13;5072947;28;20048;-95
2022/10/06 08:34:49;;;;;;;23.10;13.43;;;;;;;16.07;91.26;99858.97;5073498;28;20051;-95
2022/10/06 08:37:16;;;;;;;26.58;13.63;;;;;;;15.97;94.94;99869.16;5073853;28;20044;-96
2022/10/06 08:39:43;;;;;;;24.92;14.15;;;;;;;16.07;93.51;99865.25;5072819;28;20049;-95
2022/10/06 08:42:17;;;;;;;22.55;13.10;;;;;;;16.29;91.55;99861.88;5073896;28;20051;-95
2022/10/06 08:44:47;;;;;;;22.27;13.07;;;;;;;16.61;88.93;99867.03;5071967;28;20052;-96
2022/10/06 08:47:17;;;;;;;19.58;11.73;;;;;;;16.91;87.76;99849.91;5072924;28;20119;-95
2022/10/06 08:49:46;;;;;;;20.27;11.10;;;;;;;17.14;83.55;99854.47;5071524;28;20071;-95
2022/10/06 08:52:35;;;;;;;16.98;11.15;;;;;;;17.28;83.73;99878.16;5071487;28;20103;-96
2022/10/06 08:55:15;;;;;;;17.83;11.07;;;;;;;17.42;82.95;99876.69;5071266;28;20131;-95
2022/10/06 08:57:53;;;;;;;17.85;10.25;;;;;;;17.42;82.24;99849.81;5069352;28;20076;-96
2022/10/06 09:00:19;;;;;;;17.13;9.45;;;;;;;17.49;83.02;99853.16;5061507;28;20048;-96
2022/10/06 09:02:47;;;;;;;21.50;11.85;;;;;;;17.75;82.56;99870.09;5059684;28;20048;-96
2022/10/06 09:05:18;;;;;;;25.92;12.98;;;;;;;17.99;82.68;99860.22;5061020;28;20041;-96
2022/10/06 09:07:57;;;;;;;24.15;12.90;;;;;;;18.22;81.12;99870.06;5065661;28;20045;-96
2022/10/06 09:10:34;;;;;;;;;;;;;;;18.47;80.39;99886.94;5066517;28;20049;-96
2022/10/06 09:13:05;;;;;;;28.25;15.25;;;;;;;18.48;78.31;99855.50;5061496;28;20003;-96
2022/10/06 09:15:37;;;;;;;32.90;16.98;;;;;;;18.45;79.04;99847.53;5063964;28;20143;-96
2022/10/06 09:18:12;;;;;;;34.03;16.70;;;;;;;18.61;78.19;99848.66;5063123;28;20040;-96
2022/10/06 09:20:45;;;;;;;36.83;17.27;;;;;;;18.75;77.71;99852.56;5061662;28;20041;-96
2022/10/06 09:23:16;;;;;;;34.75;16.65;;;;;;;18.83;76.95;99847.75;5060192;28;20064;-96
2022/10/06 09:25:43;;;;;;;32.83;17.58;;;;;;;19.06;77.11;99870.97;5060856;28;20052;-95
2022/10/06 09:28:14;;;;;;;35.97;17.60;;;;;;;19.03;76.08;99849.56;5063379;28;20064;-94
2022/10/06 09:30:41;;;;;;;33.63;17.27;;;;;;;19.11;75.04;99852.81;5061148;28;20527;-95
2022/10/06 09:33:17;;;;;;;29.38;17.27;;;;;;;18.98;75.39;99865.94;5063942;28;20095;-94
2022/10/06 09:36:07;;;;;;;35.85;18.05;;;;;;;18.74;77.38;99843.63;5060995;28;20045;-96
2022/10/06 09:38:46;;;;;;;33.35;17.55;;;;;;;19.01;76.62;99851.47;5062941;28;20084;-96
2022/10/06 09:41:15;;;;;;;32.08;16.67;;;;;;;19.34;75.44;99877.84;5061177;28;20059;-95
2022/10/06 09:43:51;;;;;;;34.75;17.92;;;;;;;19.38;75.59;99849.78;5058055;28;20440;-96
2022/10/06 09:46:20;;;;;;;30.10;17.02;;;;;;;19.60;75.60;99845.13;5057074;28;20045;-96
2022/10/06 09:48:46;;;;;;;25.50;15.40;;;;;;;19.69;74.91;99833.97;5057731;28;20131;-95
2022/10/06 09:51:14;;;;;;;24.65;14.98;;;;;;;19.75;73.24;99823.81;5059700;28;20302;-96
2022/10/06 09:53:40;;;;;;;33.47;16.02;;;;;;;19.86;72.94;99829.56;5062542;28;20065;-95
2022/10/06 09:56:17;;;;;;;30.40;14.70;;;;;;;19.93;72.38;99822.03;5059789;28;20052;-96
2022/10/06 09:58:55;;;;;;;30.00;15.55;;;;;;;19.84;73.31;99821.56;5061888;28;20052;-96
2022/10/06 10:01:24;;;;;;;31.35;15.90;;;;;;;19.97;72.63;99823.66;5059080;28;20055;-96
2022/10/06 10:03:52;;;;;;;28.02;15.13;;;;;;;20.16;72.64;99831.72;5059875;28;20083;-96
2022/10/06 10:06:22;;;;;;;26.20;14.57;;;;;;;20.16;74.02;99821.78;5060511;28;20057;-96
2022/10/06 10:08:48;;;;;;;25.25;13.82;;;;;;;20.30;72.86;99818.41;5059979;28;20045;-96
2022/10/06 10:14:19;;;;;;;23.63;12.23;;;;;;;20.49;71.81;99821.94;5097992;27;20389;-96
2022/10/06 10:16:47;;;;;;;26.85;13.00;;;;;;;20.72;71.77;99844.22;5099080;28;20080;-95
2022/10/06 10:19:26;;;;;;;18.42;11.13;;;;;;;20.65;71.18;99811.22;5097769;28;20105;-95
2022/10/06 10:21:55;;;;;;;24.67;12.60;;;;;;;20.65;70.57;99808.53;5097390;28;20042;-94
2022/10/06 10:24:38;;;;;;;19.02;11.27;;;;;;;20.72;71.88;99812.66;5097889;28;20142;-95
2022/10/06 10:27:14;;;;;;;19.38;11.23;;;;;;;20.70;71.18;99803.75;5101906;28;20071;-96
2022/10/06 10:30:00;;;;;;;22.15;11.65;;;;;;;20.84;70.65;99829.16;5095999;28;20154;-96
2022/10/06 10:32:41;;;;;;;19.80;10.93;;;;;;;20.84;71.82;99823.75;5094088;28;20040;-95
2022/10/06 10:35:22;;;;;;;18.55;11.18;;;;;;;20.88;72.36;99822.66;5095970;28;20471;-95
2022/10/06 10:37:51;;;;;;;21.88;11.07;;;;;;;20.79;72.66;99796.13;5094393;28;20214;-96
2022/10/06 10:40:32;;;;;;;18.83;11.02;;;;;;;20.98;71.81;99823.91;5095095;28;20048;-96
2022/10/06 10:43:10;;;;;;;23.08;11.15;;;;;;;21.04;71.09;99823.59;5095960;28;20036;-94
2022/10/06 10:45:43;;;;;;;22.17;10.75;;;;;;;20.90;71.29;99796.41;5096303;28;20041;-94
2022/10/06 10:48:14;;;;;;;22.23;11.30;;;;;;;20.93;71.83;99810.66;5096362;28;20043;-92
2022/10/06 10:50:49;;;;;;;23.35;11.35;;;;;;;20.90;71.04;99804.53;5093103;28;20143;-95
2022/10/06 10:53:22;;;;;;;22.75;11.55;;;;;;;20.87;71.27;99796.59;5095187;28;20082;-93
2022/10/06 10:55:50;;;;;;;20.63;11.02;;;;;;;21.00;72.75;99816.59;5095195;28;20044;-94
2022/10/06 10:58:23;;;;;;;18.83;10.88;;;;;;;20.90;71.57;99789.16;5096314;28;20032;-94
2022/10/06 11:00:54;;;;;;;20.05;11.35;;;;;;;20.96;71.63;99797.94;5096333;28;20072;-92
2022/10/06 11:03:20;;;;;;;18.73;12.48;;;;;;;20.95;71.05;99786.25;5095476;28;20131;-95
2022/10/06 11:06:13;;;;;;;22.50;11.30;;;;;;;21.04;69.94;99783.03;5096216;28;20170;-93
2022/10/06 11:08:45;;;;;;;17.00;11.18;;;;;;;21.19;71.41;99788.53;5096202;28;20040;-95
2022/10/06 11:11:19;;;;;;;23.00;12.27;;;;;;;21.13;69.70;99779.81;5084777;28;20055;-93
2022/10/06 11:13:49;;;;;;;17.58;10.43;;;;;;;21.26;71.16;99781.88;5094692;28;20086;-94
2022/10/06 11:16:32;;;;;;;21.83;10.43;;;;;;;21.45;70.80;99798.88;5094106;28;20044;-94
2022/10/06 11:19:15;;;;;;;21.15;10.70;;;;;;;21.41;70.19;99782.84;5093161;28;20097;-95
2022/10/06 11:21:45;;;;;;;21.02;10.90;;;;;;;21.33;70.55;99762.50;5093101;28;20052;-96
2022/10/06 11:24:18;;;;;;;18.67;11.25;;;;;;;21.54;70.81;99787.53;5089167;28;20032;-95
2022/10/06 11:27:01;;;;;;;18.33;10.30;;;;;;;21.50;69.95;99756.16;5080940;28;20127;-93
2022/10/06 11:29:41;;;;;;;18.30;9.38;;;;;;;21.73;69.74;99775.66;5079839;28;20102;-94
2022/10/06 11:32:22;;;;;;;17.63;9.50;;;;;;;21.70;68.29;99759.59;5075731;28;20048;-94
2022/10/06 11:34:49;;;;;;;15.85;9.55;;;;;;;21.74;68.99;99744.91;5077611;28;20040;-95
2022/10/06 11:37:23;;;;;;;15.00;10.00;;;;;;;21.91;67.03;99758.34;5078992;28;20044;-95
2022/10/06 11:40:03;;;;;;;15.82;9.40;;;;;;;21.98;66.90;99758.84;5080335;28;20041;-94
2022/10/06 11:42:40;;;;;;;15.18;7.78;;;;;;;21.97;63.48;99764.34;5075334;28;20047;-95